Airfield :
LOGIN :

Register | Disclaimer

   EN    FR    IT 

 










Legend :    VFR   Marginal VFR   IFR   Intensive IFR   Very Intensive IFR
Visi :
Ceiling :
>= 8 km
>= 3000ft
5 to 8 km
1000 to 3000 ft
1500m to 5 km
500 to 1000 ft
800 to 1500m
200 to 500 ft
< 800m
< 200 ft
Symbols :   Thunderstorms  Fog  Heavy snow  Heavy precipitations  Wind > 20 kt
SIGMETs :     Misc.  Thunderstorms  Icing  Turbulence  Mountain Waves  Volcanic Ashes







- Airport Elevation : 1306 ft
- IATA code : ACH


LSZR - Alten Rhein

CURRENT METAR :
  • 261850Z 22002KT CAVOK 16/11 Q1014 NOSIG RMK M

EXPIRED METARs :
  • 261820Z 28003KT CAVOK 19/09 Q1014 NOSIG RMK L
  • 261750Z 28003KT CAVOK 19/09 Q1014 NOSIG RMK L
  • 261720Z 28003KT 9999 FEW060 SCT100 20/08 Q1014 NOSIG RMK K
  • 261650Z 28003KT 9999 FEW060 SCT100 18/12 Q1015 NOSIG RMK K
  • 261620Z VRB02KT 9999 FEW060 BKN100 19/10 Q1015 NOSIG RMK J

TAF TAF LSZR
Valid from the 26 at 15:00 until the 27 at 00:00 UTC


261425Z 2615/2624 VRB03KT 9999 FEW060 BKN080
PROB30
TEMPO 2615/2618 SHRA SCT060TCU
ATIS : +41 71 858 51 66
No reported NOTAMs for that airfield.



MET'MAP, your aeronautical weather chart ! - Copyright ORBIFLY December 2007 - Disclaimer

ORBIFLY MET'MAP TEAM :

Programming & Development : Alexandra Zaïnal
Concept & Development : Baudouin d'Aumeries
Co-Development & Prog : Marc-Olivier Méhu
Technical & hardware support : Manuel Goepfert

Contact : metmap@orbifly.com




SOURCES & CREDITS :

   NOAA